createdAt,value
2023-01-29T00:01:48.142Z,12.57
2023-01-29T00:04:15.245Z,11.85
2023-01-29T00:06:42.072Z,15.35
2023-01-29T00:09:09.378Z,13.60
2023-01-29T00:11:36.060Z,13.35
2023-01-29T00:14:02.592Z,13.40
2023-01-29T00:16:29.520Z,14.10
2023-01-29T00:18:55.947Z,13.10
2023-01-29T00:21:23.044Z,13.50
2023-01-29T00:23:50.424Z,13.63
2023-01-29T00:28:44.074Z,13.95
2023-01-29T00:31:16.103Z,13.65
2023-01-29T00:33:42.879Z,13.93
2023-01-29T00:36:11.610Z,14.35
2023-01-29T00:38:39.532Z,14.57
2023-01-29T00:41:28.685Z,13.82
2023-01-29T00:44:13.991Z,16.08
2023-01-29T00:46:40.564Z,13.52
2023-01-29T00:49:07.812Z,15.43
2023-01-29T00:54:06.702Z,13.95
2023-01-29T00:56:35.851Z,13.98
2023-01-29T00:59:04.123Z,14.10
2023-01-29T01:01:49.492Z,13.60
2023-01-29T01:04:16.032Z,13.55
2023-01-29T01:06:43.396Z,13.57
2023-01-29T01:09:29.554Z,15.57
2023-01-29T01:11:56.819Z,13.93
2023-01-29T01:14:23.394Z,15.30
2023-01-29T01:16:49.927Z,14.40
2023-01-29T01:19:16.791Z,15.15
2023-01-29T01:21:45.431Z,14.48
2023-01-29T01:24:13.097Z,14.50
2023-01-29T01:26:39.830Z,17.83
2023-01-29T01:29:06.456Z,16.25
2023-01-29T01:31:32.894Z,17.33
2023-01-29T01:33:59.485Z,16.02
2023-01-29T01:36:25.974Z,16.45
2023-01-29T01:38:52.402Z,16.25
2023-01-29T01:41:21.866Z,14.98
2023-01-29T01:44:01.489Z,14.63
2023-01-29T01:46:31.427Z,14.90
2023-01-29T01:49:16.129Z,15.68
2023-01-29T01:51:50.703Z,15.57
2023-01-29T01:54:23.824Z,17.40
2023-01-29T01:56:55.859Z,17.58
2023-01-29T01:59:23.844Z,15.55
2023-01-29T02:01:53.965Z,16.70
2023-01-29T02:04:42.511Z,16.67
2023-01-29T02:07:32.603Z,16.05
2023-01-29T02:10:16.880Z,16.10
2023-01-29T02:12:45.753Z,17.25
2023-01-29T02:15:13.267Z,15.40
2023-01-29T02:17:40.015Z,15.65
2023-01-29T02:20:15.968Z,16.92
2023-01-29T02:22:56.071Z,15.38
2023-01-29T02:25:50.664Z,16.05
2023-01-29T02:28:43.251Z,16.75
2023-01-29T02:31:35.485Z,16.67
2023-01-29T02:34:51.730Z,15.52
2023-01-29T02:37:25.663Z,16.63
2023-01-29T02:42:39.164Z,14.95
2023-01-29T02:45:12.291Z,14.23
2023-01-29T02:48:05.574Z,16.17
2023-01-29T02:50:45.390Z,16.77
2023-01-29T02:53:41.127Z,15.40
2023-01-29T02:56:15.639Z,14.55
2023-01-29T02:58:46.000Z,16.13
2023-01-29T03:01:18.798Z,15.07
2023-01-29T03:03:50.160Z,14.10
2023-01-29T03:06:46.475Z,14.55
2023-01-29T03:09:21.932Z,15.32
2023-01-29T03:11:58.665Z,15.38
2023-01-29T03:14:52.916Z,14.70
2023-01-29T03:17:25.426Z,14.18
2023-01-29T03:19:52.471Z,14.13
2023-01-29T03:22:23.158Z,14.35
2023-01-29T03:25:15.614Z,15.63
2023-01-29T03:28:09.519Z,14.90
2023-01-29T03:31:09.357Z,14.80
2023-01-29T03:33:44.297Z,13.80
2023-01-29T03:36:18.583Z,15.07
2023-01-29T03:38:48.995Z,14.00
2023-01-29T03:41:28.687Z,14.65
2023-01-29T03:44:02.425Z,14.13
2023-01-29T03:46:34.638Z,14.32
2023-01-29T03:49:15.942Z,14.30
2023-01-29T03:51:48.432Z,13.95
2023-01-29T03:54:44.256Z,15.13
2023-01-29T03:57:27.151Z,12.15
2023-01-29T04:00:02.148Z,16.25
2023-01-29T04:02:35.705Z,16.92
2023-01-29T04:05:10.953Z,18.02
2023-01-29T04:07:40.543Z,17.80
2023-01-29T04:10:17.101Z,17.83
2023-01-29T04:12:53.718Z,14.57
2023-01-29T04:15:23.128Z,14.07
2023-01-29T04:17:52.722Z,13.13
2023-01-29T04:20:20.797Z,16.13
2023-01-29T04:22:50.355Z,16.48
2023-01-29T04:25:26.858Z,16.88
2023-01-29T04:28:05.779Z,14.75
2023-01-29T04:30:56.552Z,14.45
2023-01-29T04:33:40.343Z,13.60
2023-01-29T04:36:20.738Z,13.63
2023-01-29T04:39:17.990Z,14.27
2023-01-29T04:41:54.421Z,13.70
2023-01-29T04:44:24.459Z,13.57
2023-01-29T04:47:20.155Z,15.15
2023-01-29T04:49:58.977Z,14.63
2023-01-29T04:52:46.967Z,14.00
2023-01-29T04:55:35.973Z,13.23
2023-01-29T04:58:12.655Z,13.88
2023-01-29T05:00:44.357Z,14.75
2023-01-29T05:03:13.348Z,16.55
2023-01-29T05:05:42.951Z,13.52
2023-01-29T05:08:13.449Z,15.20
2023-01-29T05:10:40.145Z,13.20
2023-01-29T05:13:11.591Z,13.48
2023-01-29T05:15:41.838Z,13.40
2023-01-29T05:18:09.028Z,12.35
2023-01-29T05:20:39.124Z,14.00
2023-01-29T05:23:18.623Z,15.45
2023-01-29T05:25:46.351Z,15.13
2023-01-29T05:28:17.190Z,15.48
2023-01-29T05:30:46.478Z,13.95
2023-01-29T05:33:19.068Z,15.65
2023-01-29T05:35:46.564Z,16.05
2023-01-29T05:40:40.221Z,14.82
2023-01-29T05:43:15.381Z,13.63
2023-01-29T05:45:42.155Z,14.15
2023-01-29T05:48:09.185Z,13.70
2023-01-29T05:50:35.664Z,13.98
2023-01-29T05:53:02.411Z,15.18
2023-01-29T05:55:31.958Z,14.85
2023-01-29T05:57:58.683Z,13.07
2023-01-29T06:00:25.594Z,13.63
2023-01-29T06:02:52.785Z,13.45
2023-01-29T06:05:19.267Z,14.95
2023-01-29T06:07:46.961Z,14.25
2023-01-29T06:12:43.584Z,12.80
2023-01-29T06:15:11.159Z,13.40
2023-01-29T06:17:37.804Z,14.27
2023-01-29T06:20:05.378Z,14.30
2023-01-29T06:22:33.091Z,13.15
2023-01-29T06:24:59.975Z,14.35
2023-01-29T06:27:26.678Z,13.95
2023-01-29T06:29:53.390Z,14.13
2023-01-29T06:32:19.995Z,14.27
2023-01-29T06:34:48.716Z,14.40
2023-01-29T06:37:16.392Z,13.85
2023-01-29T06:39:42.822Z,13.50
2023-01-29T06:42:09.980Z,14.48
2023-01-29T06:44:36.901Z,13.45
2023-01-29T06:47:03.834Z,13.00
2023-01-29T06:49:30.998Z,13.88
2023-01-29T06:51:57.727Z,11.95
2023-01-29T06:54:26.209Z,14.45
2023-01-29T06:56:53.307Z,14.55
2023-01-29T06:59:20.078Z,13.77
2023-01-29T07:01:46.768Z,12.85
2023-01-29T07:04:13.676Z,13.68
2023-01-29T07:06:40.156Z,13.20
2023-01-29T07:09:07.002Z,14.40
2023-01-29T07:11:37.855Z,13.90
2023-01-29T07:14:04.494Z,14.98
2023-01-29T07:16:31.371Z,13.77
2023-01-29T07:18:58.174Z,14.23
2023-01-29T07:21:25.060Z,15.18
2023-01-29T07:23:51.526Z,14.10
2023-01-29T07:26:18.717Z,14.35
2023-01-29T07:28:45.088Z,13.38
2023-01-29T07:31:13.864Z,13.75
2023-01-29T07:33:43.795Z,14.55
2023-01-29T07:36:11.570Z,14.40
2023-01-29T07:38:38.126Z,14.80
2023-01-29T07:41:04.861Z,15.07
2023-01-29T07:43:31.487Z,14.93
2023-01-29T07:46:02.380Z,13.20
2023-01-29T07:48:28.986Z,13.02
2023-01-29T07:50:57.403Z,12.90
2023-01-29T07:53:23.969Z,13.32
2023-01-29T07:55:51.468Z,12.98
2023-01-29T07:58:18.366Z,12.10
2023-01-29T08:00:45.211Z,14.13
2023-01-29T08:03:17.575Z,13.40
2023-01-29T08:05:44.811Z,13.05
2023-01-29T08:08:11.470Z,12.55
2023-01-29T08:10:39.516Z,12.18
2023-01-29T08:13:07.340Z,12.13
2023-01-29T08:15:37.086Z,13.80
2023-01-29T08:18:04.778Z,12.10
2023-01-29T08:20:31.461Z,12.68
2023-01-29T08:23:02.759Z,12.23
2023-01-29T08:25:29.452Z,12.95
2023-01-29T08:27:57.909Z,11.27
2023-01-29T08:30:30.245Z,13.35
2023-01-29T08:32:57.130Z,13.23
2023-01-29T08:35:24.442Z,12.40
2023-01-29T08:40:21.527Z,12.32
2023-01-29T08:42:48.115Z,15.07
2023-01-29T08:45:14.680Z,12.93
2023-01-29T08:47:49.049Z,13.15
2023-01-29T08:50:17.638Z,13.15
2023-01-29T08:52:45.689Z,12.23
2023-01-29T08:55:12.307Z,9.98
2023-01-29T08:57:39.400Z,11.57
2023-01-29T09:00:07.696Z,12.10
2023-01-29T09:02:34.971Z,13.07
2023-01-29T09:05:01.499Z,12.02
2023-01-29T09:07:29.250Z,12.40
2023-01-29T09:09:55.875Z,12.10
2023-01-29T09:12:22.547Z,12.80
2023-01-29T09:14:49.237Z,12.07
2023-01-29T09:17:15.853Z,10.38
2023-01-29T09:19:42.305Z,12.02
2023-01-29T09:22:10.943Z,12.48
2023-01-29T09:24:38.307Z,11.32
2023-01-29T09:27:06.023Z,12.00
2023-01-29T09:29:35.431Z,11.73
2023-01-29T09:32:04.581Z,11.45
2023-01-29T09:34:31.173Z,12.55
2023-01-29T09:36:58.373Z,12.02
2023-01-29T09:41:58.392Z,12.50
2023-01-29T09:44:43.545Z,12.20
2023-01-29T09:47:13.772Z,11.68
2023-01-29T09:49:45.832Z,12.75
2023-01-29T09:52:20.262Z,10.63
2023-01-29T09:55:05.972Z,11.60
2023-01-29T09:57:54.143Z,13.23
2023-01-29T10:00:37.405Z,13.00
2023-01-29T10:03:32.017Z,10.48
2023-01-29T10:06:08.040Z,17.50
2023-01-29T10:08:47.033Z,15.30
2023-01-29T10:11:26.927Z,15.55
2023-01-29T10:14:22.704Z,13.05
2023-01-29T10:17:07.449Z,10.60
2023-01-29T10:19:52.626Z,11.05
2023-01-29T10:22:39.624Z,10.85
2023-01-29T10:25:11.445Z,11.32
2023-01-29T10:27:41.159Z,11.43
2023-01-29T10:30:20.385Z,11.77
2023-01-29T10:32:49.206Z,9.93
2023-01-29T10:35:34.291Z,9.35
2023-01-29T10:38:18.620Z,7.97
2023-01-29T10:40:55.647Z,8.88
2023-01-29T10:43:37.257Z,8.38
2023-01-29T10:46:18.129Z,9.43
2023-01-29T10:48:57.209Z,8.75
2023-01-29T10:54:19.607Z,8.45
2023-01-29T10:56:55.903Z,10.45
2023-01-29T10:59:48.833Z,9.13
2023-01-29T11:02:18.550Z,9.23
2023-01-29T11:04:45.753Z,9.88
2023-01-29T11:07:14.704Z,8.75
2023-01-29T11:09:56.255Z,8.40
2023-01-29T11:12:30.308Z,8.50
2023-01-29T11:15:04.929Z,8.85
2023-01-29T11:17:31.532Z,9.60
2023-01-29T11:19:58.559Z,10.77
2023-01-29T11:22:27.443Z,9.55
2023-01-29T11:25:21.831Z,9.23
2023-01-29T11:28:02.873Z,9.65
2023-01-29T11:30:37.310Z,9.10
2023-01-29T11:33:23.637Z,9.38
2023-01-29T11:35:52.441Z,9.02
2023-01-29T11:38:25.704Z,9.52
2023-01-29T11:40:53.274Z,10.38
2023-01-29T11:43:22.530Z,9.55
2023-01-29T11:45:56.003Z,9.55
2023-01-29T11:48:32.172Z,10.57
2023-01-29T11:51:00.692Z,10.15
2023-01-29T11:53:36.977Z,10.80
2023-01-29T11:56:06.930Z,9.73
2023-01-29T11:58:35.799Z,9.32
2023-01-29T12:01:03.783Z,9.50
2023-01-29T12:03:40.109Z,9.45
2023-01-29T12:06:21.493Z,9.77
2023-01-29T12:08:58.742Z,8.45
2023-01-29T12:11:31.748Z,10.35
2023-01-29T12:14:01.020Z,9.32
2023-01-29T12:16:38.137Z,9.40
2023-01-29T12:19:38.229Z,9.80
2023-01-29T12:22:28.663Z,8.52
2023-01-29T12:24:55.119Z,8.43
2023-01-29T12:27:46.408Z,8.90
2023-01-29T12:30:21.608Z,9.10
2023-01-29T12:32:56.504Z,8.93
2023-01-29T12:35:28.432Z,9.02
2023-01-29T12:38:02.493Z,8.95
2023-01-29T12:40:38.559Z,9.75
2023-01-29T12:43:15.246Z,8.55
2023-01-29T12:45:47.996Z,8.30
2023-01-29T12:51:38.669Z,8.63
2023-01-29T12:54:12.555Z,8.73
2023-01-29T12:56:47.012Z,8.57
2023-01-29T12:59:36.339Z,9.02
2023-01-29T13:02:20.518Z,9.15
2023-01-29T13:05:03.904Z,8.90
2023-01-29T13:07:36.011Z,8.48
2023-01-29T13:10:13.734Z,7.32
2023-01-29T13:12:51.707Z,7.90
2023-01-29T13:15:31.240Z,8.77
2023-01-29T13:18:30.781Z,8.57
2023-01-29T13:21:00.180Z,7.90
2023-01-29T13:23:36.233Z,8.23
2023-01-29T13:26:03.785Z,8.73
2023-01-29T13:28:30.573Z,9.32
2023-01-29T13:31:35.834Z,9.20
2023-01-29T13:34:31.514Z,9.82
2023-01-29T13:37:00.988Z,8.80
2023-01-29T13:39:34.367Z,8.82
2023-01-29T13:42:14.701Z,9.38
2023-01-29T13:44:41.446Z,8.20
2023-01-29T13:47:11.232Z,8.57
2023-01-29T13:49:59.507Z,9.70
2023-01-29T13:52:37.143Z,10.10
2023-01-29T13:55:15.220Z,8.45
2023-01-29T13:57:48.726Z,9.27
2023-01-29T14:00:21.188Z,7.50
2023-01-29T14:03:13.547Z,8.50
2023-01-29T14:05:58.425Z,6.88
2023-01-29T14:08:34.171Z,7.80
2023-01-29T14:11:16.914Z,7.97
2023-01-29T14:13:47.069Z,9.18
2023-01-29T14:16:13.524Z,8.02
2023-01-29T14:18:47.876Z,8.88
2023-01-29T14:21:14.380Z,9.77
2023-01-29T14:23:49.753Z,7.97
2023-01-29T14:26:32.243Z,8.70
2023-01-29T14:29:18.772Z,8.98
2023-01-29T14:32:21.256Z,8.90
2023-01-29T14:34:50.810Z,8.77
2023-01-29T14:37:28.178Z,8.40
2023-01-29T14:39:58.219Z,8.57
2023-01-29T14:42:29.579Z,9.45
2023-01-29T14:45:25.995Z,8.30
2023-01-29T14:48:02.217Z,7.97
2023-01-29T14:50:28.874Z,8.27
2023-01-29T14:53:19.591Z,7.60
2023-01-29T14:56:12.426Z,8.70
2023-01-29T14:58:51.881Z,8.35
2023-01-29T15:01:26.728Z,8.15
2023-01-29T15:04:02.586Z,8.55
2023-01-29T15:06:41.323Z,8.93
2023-01-29T15:09:36.388Z,9.48
2023-01-29T15:12:23.030Z,8.13
2023-01-29T15:15:01.849Z,8.45
2023-01-29T15:17:32.812Z,8.30
2023-01-29T15:19:59.554Z,8.93
2023-01-29T15:22:28.947Z,9.25
2023-01-29T15:25:07.308Z,9.57
2023-01-29T15:27:34.247Z,8.07
2023-01-29T15:30:04.381Z,8.15
2023-01-29T15:32:37.228Z,8.77
2023-01-29T15:35:19.815Z,7.85
2023-01-29T15:37:59.122Z,7.95
2023-01-29T15:40:26.889Z,7.82
2023-01-29T15:42:53.869Z,8.15
2023-01-29T15:45:32.219Z,9.02
2023-01-29T15:48:13.828Z,7.95
2023-01-29T15:50:42.288Z,7.78
2023-01-29T15:53:15.852Z,8.27
2023-01-29T15:55:43.634Z,8.48
2023-01-29T15:58:18.807Z,9.15
2023-01-29T16:00:55.512Z,8.90
2023-01-29T16:03:25.474Z,8.70
2023-01-29T16:05:52.642Z,9.40
2023-01-29T16:08:21.818Z,8.85
2023-01-29T16:10:53.617Z,8.63
2023-01-29T16:13:25.731Z,7.85
2023-01-29T16:16:07.504Z,7.10
2023-01-29T16:18:42.825Z,8.35
2023-01-29T16:21:17.253Z,9.32
2023-01-29T16:23:49.812Z,9.30
2023-01-29T16:26:21.662Z,10.98
2023-01-29T16:28:48.386Z,10.77
2023-01-29T16:31:23.669Z,10.05
2023-01-29T16:33:50.388Z,9.77
2023-01-29T16:36:21.676Z,10.13
2023-01-29T16:39:00.977Z,10.45
2023-01-29T16:41:33.146Z,11.18
2023-01-29T16:44:12.939Z,12.13
2023-01-29T16:46:48.008Z,9.38
2023-01-29T16:49:40.434Z,9.23
2023-01-29T16:52:19.291Z,8.52
2023-01-29T16:54:46.713Z,9.90
2023-01-29T16:57:18.141Z,9.63
2023-01-29T16:59:45.891Z,8.88
2023-01-29T17:02:23.096Z,8.63
2023-01-29T17:04:52.446Z,8.93
2023-01-29T17:07:22.317Z,9.57
2023-01-29T17:09:54.056Z,10.38
2023-01-29T17:12:26.396Z,9.15
2023-01-29T17:15:05.888Z,10.50
2023-01-29T17:17:35.748Z,8.95
2023-01-29T17:20:16.484Z,9.18
2023-01-29T17:22:44.688Z,8.85
2023-01-29T17:25:14.199Z,9.77
2023-01-29T17:27:45.199Z,8.73
2023-01-29T17:30:16.562Z,8.60
2023-01-29T17:32:47.347Z,10.65
2023-01-29T17:35:17.026Z,9.52
2023-01-29T17:37:44.959Z,8.82
2023-01-29T17:40:47.360Z,9.30
2023-01-29T17:43:13.903Z,9.73
2023-01-29T17:45:40.717Z,9.10
2023-01-29T17:48:15.361Z,9.80
2023-01-29T17:50:48.325Z,9.32
2023-01-29T17:53:17.859Z,10.00
2023-01-29T17:55:45.022Z,9.20
2023-01-29T18:00:46.825Z,8.70
2023-01-29T18:03:13.487Z,9.98
2023-01-29T18:05:42.429Z,8.93
2023-01-29T18:08:22.190Z,9.35
2023-01-29T18:10:48.669Z,9.20
2023-01-29T18:13:15.353Z,9.20
2023-01-29T18:15:43.074Z,9.05
2023-01-29T18:18:14.034Z,9.85
2023-01-29T18:20:40.642Z,9.02
2023-01-29T18:23:08.376Z,9.10
2023-01-29T18:25:35.241Z,8.77
2023-01-29T18:28:02.460Z,7.88
2023-01-29T18:30:31.505Z,8.93
2023-01-29T18:35:27.159Z,8.27
2023-01-29T18:37:54.032Z,8.38
2023-01-29T18:40:20.795Z,7.13
2023-01-29T18:42:47.470Z,7.72
2023-01-29T18:45:15.247Z,9.15
2023-01-29T18:47:42.671Z,8.50
2023-01-29T18:50:11.676Z,7.75
2023-01-29T18:52:38.853Z,7.47
2023-01-29T18:55:06.143Z,7.57
2023-01-29T18:58:31.048Z,8.35
2023-01-29T19:00:20.511Z,7.32
2023-01-29T19:02:46.921Z,7.57
2023-01-29T19:05:13.389Z,7.25
2023-01-29T19:07:41.262Z,7.40
2023-01-29T19:10:12.406Z,7.32
2023-01-29T19:12:42.210Z,6.70
2023-01-29T19:15:09.733Z,7.93
2023-01-29T19:17:37.938Z,7.18
2023-01-29T19:22:32.320Z,7.82
2023-01-29T19:24:59.094Z,7.95
2023-01-29T19:27:30.144Z,7.60
2023-01-29T19:29:58.079Z,6.13
2023-01-29T19:32:24.669Z,7.88
2023-01-29T19:34:52.161Z,7.55
2023-01-29T19:37:18.575Z,6.65
2023-01-29T19:39:45.075Z,7.30
2023-01-29T19:42:11.530Z,7.22
2023-01-29T19:44:56.273Z,7.60
2023-01-29T19:47:23.158Z,8.18
2023-01-29T19:49:50.595Z,7.40
2023-01-29T19:52:51.254Z,7.55
2023-01-29T19:55:19.948Z,7.15
2023-01-29T19:57:47.432Z,8.52
2023-01-29T20:00:15.467Z,7.25
2023-01-29T20:02:42.508Z,6.90
2023-01-29T20:05:11.949Z,8.27
2023-01-29T20:07:42.383Z,7.18
2023-01-29T20:10:16.839Z,7.68
2023-01-29T20:12:45.735Z,6.85
2023-01-29T20:15:13.944Z,7.00
2023-01-29T20:17:40.520Z,7.90
2023-01-29T20:22:35.924Z,6.88
2023-01-29T20:25:02.532Z,6.75
2023-01-29T20:27:29.221Z,6.75
2023-01-29T20:29:55.899Z,6.75
2023-01-29T20:32:22.616Z,6.72
2023-01-29T20:34:51.930Z,7.15
2023-01-29T20:37:19.852Z,6.65
2023-01-29T20:39:47.274Z,6.40
2023-01-29T20:42:14.202Z,6.82
2023-01-29T20:44:41.195Z,5.97
2023-01-29T20:47:08.373Z,7.25
2023-01-29T20:49:35.443Z,6.40
2023-01-29T20:52:01.952Z,6.90
2023-01-29T20:54:29.845Z,6.80
2023-01-29T20:56:57.119Z,6.80
2023-01-29T20:59:24.103Z,6.55
2023-01-29T21:01:50.848Z,7.20
2023-01-29T21:04:17.449Z,7.05
2023-01-29T21:06:44.248Z,6.20
2023-01-29T21:09:10.814Z,7.03
2023-01-29T21:11:37.326Z,7.07
2023-01-29T21:14:04.371Z,6.68
2023-01-29T21:16:32.224Z,7.38
2023-01-29T21:18:59.718Z,6.78
2023-01-29T21:21:26.883Z,7.00
2023-01-29T21:23:53.533Z,7.22
2023-01-29T21:28:47.108Z,6.32
2023-01-29T21:31:16.149Z,6.80
2023-01-29T21:33:44.330Z,6.22
2023-01-29T21:36:11.757Z,6.30
2023-01-29T21:38:38.823Z,6.15
2023-01-29T21:41:08.602Z,6.53
2023-01-29T21:43:35.572Z,6.60
2023-01-29T21:46:11.402Z,6.65
2023-01-29T21:48:39.281Z,6.78
2023-01-29T21:51:06.778Z,6.35
2023-01-29T21:53:33.802Z,6.60
2023-01-29T21:58:28.270Z,6.05
2023-01-29T22:00:54.725Z,6.57
2023-01-29T22:03:21.565Z,6.65
2023-01-29T22:05:49.952Z,7.40
2023-01-29T22:08:17.779Z,6.07
2023-01-29T22:10:44.294Z,5.95
2023-01-29T22:13:11.263Z,6.53
2023-01-29T22:18:04.906Z,5.80
2023-01-29T22:20:31.569Z,6.45
2023-01-29T22:25:27.518Z,5.28
2023-01-29T22:27:54.376Z,5.75
2023-01-29T22:30:23.102Z,6.13
2023-01-29T22:32:50.424Z,6.15
2023-01-29T22:35:17.401Z,6.15
2023-01-29T22:37:44.990Z,6.88
2023-01-29T22:42:38.574Z,6.95
2023-01-29T22:45:05.785Z,5.85
2023-01-29T22:47:33.564Z,5.70
2023-01-29T22:50:00.361Z,6.13
2023-01-29T22:52:27.860Z,6.32
2023-01-29T22:54:54.283Z,5.57
2023-01-29T22:57:20.860Z,6.60
2023-01-29T22:59:47.499Z,6.03
2023-01-29T23:02:14.209Z,6.30
2023-01-29T23:04:41.468Z,6.93
2023-01-29T23:07:07.940Z,6.13
2023-01-29T23:09:34.517Z,6.00
2023-01-29T23:12:01.308Z,5.40
2023-01-29T23:14:28.158Z,5.38
2023-01-29T23:16:55.129Z,6.03
2023-01-29T23:19:21.832Z,6.43
2023-01-29T23:21:48.548Z,6.47
2023-01-29T23:24:15.581Z,5.90
2023-01-29T23:27:00.817Z,6.65
2023-01-29T23:29:27.588Z,5.35
2023-01-29T23:31:54.195Z,6.07
2023-01-29T23:34:22.055Z,5.18
2023-01-29T23:36:48.581Z,6.10
2023-01-29T23:39:15.393Z,6.00
2023-01-29T23:41:42.039Z,6.15
2023-01-29T23:44:08.515Z,6.22
2023-01-29T23:46:35.352Z,5.88
2023-01-29T23:49:01.989Z,5.13
2023-01-29T23:51:29.012Z,5.90
2023-01-29T23:53:56.343Z,5.63
2023-01-29T23:56:23.048Z,6.03
2023-01-29T23:58:54.765Z,5.38
